Time;durP1;ratioP1;P1;durP2;ratioP2;P2;SDS_P1;SDS_P2;PMS_P1;PMS_P2;Temp;Humidity;BMP_temperature;BMP_pressure;BME280_temperature;BME280_humidity;BME280_pressure;Samples;Min_cycle;Max_cycle;Signal;HPM_P1;HPM_P2
2023/12/04 00:00:03;;;;;;;36.70;15.63;;;-1.20;99.90;;;;;;4934783;29;20183;-65
2023/12/04 00:02:29;;;;;;;36.50;14.73;;;-1.10;99.90;;;;;;4934557;29;20325;-66
2023/12/04 00:04:54;;;;;;;38.53;15.63;;;-1.20;99.90;;;;;;4934697;29;20720;-66
2023/12/04 00:07:20;;;;;;;40.33;15.30;;;-1.20;99.90;;;;;;4935018;29;20731;-66
2023/12/04 00:09:45;;;;;;;38.03;15.40;;;-1.20;99.90;;;;;;4934694;29;20702;-66
2023/12/04 00:12:11;;;;;;;36.67;14.40;;;-1.20;99.90;;;;;;4934923;29;20274;-65
2023/12/04 00:14:37;;;;;;;39.57;15.07;;;-1.20;99.90;;;;;;4935128;28;20210;-66
2023/12/04 00:17:02;;;;;;;38.17;15.70;;;-1.20;99.90;;;;;;4935175;29;20214;-66
2023/12/04 00:19:28;;;;;;;32.10;14.13;;;-1.20;99.90;;;;;;4948897;28;20287;-66
2023/12/04 00:21:53;;;;;;;35.30;14.37;;;-1.20;99.90;;;;;;4934971;29;20206;-66
2023/12/04 00:24:19;;;;;;;35.40;15.33;;;-1.10;99.90;;;;;;4934705;29;20182;-66
2023/12/04 00:26:45;;;;;;;35.63;14.97;;;-1.10;99.90;;;;;;4934962;29;20207;-65
2023/12/04 00:29:11;;;;;;;36.97;15.47;;;-1.10;99.90;;;;;;4934604;29;20171;-65
2023/12/04 00:31:36;;;;;;;35.13;14.10;;;-1.10;99.90;;;;;;4933968;29;20250;-64
2023/12/04 00:34:02;;;;;;;36.90;14.73;;;-1.10;99.90;;;;;;4934598;29;20515;-65
2023/12/04 00:36:27;;;;;;;33.53;14.93;;;-1.10;99.90;;;;;;4934589;29;20183;-65
2023/12/04 00:38:53;;;;;;;33.10;13.93;;;-1.10;99.90;;;;;;4934500;29;20187;-66
2023/12/04 00:41:19;;;;;;;37.13;14.80;;;-1.10;99.90;;;;;;4934084;29;20472;-65
2023/12/04 00:43:44;;;;;;;32.80;13.73;;;-1.10;99.90;;;;;;4934589;29;20187;-65
2023/12/04 00:46:10;;;;;;;33.40;14.10;;;-1.20;99.90;;;;;;4934313;29;20187;-65
2023/12/04 00:48:35;;;;;;;31.70;13.40;;;-1.20;99.90;;;;;;4934448;29;20617;-66
2023/12/04 00:51:01;;;;;;;35.67;14.13;;;-1.20;99.90;;;;;;4933664;29;20214;-65
2023/12/04 00:53:26;;;;;;;38.07;14.27;;;-1.20;99.90;;;;;;4948917;29;20187;-67
2023/12/04 00:55:52;;;;;;;39.13;14.57;;;-1.30;99.90;;;;;;4934468;29;20187;-67
2023/12/04 00:58:18;;;;;;;34.30;13.53;;;-1.20;99.90;;;;;;4934244;29;20195;-66
2023/12/04 01:00:43;;;;;;;38.47;15.33;;;-1.20;99.90;;;;;;4933613;29;20657;-68
2023/12/04 01:03:09;;;;;;;38.60;14.43;;;-1.20;99.90;;;;;;4934198;29;20616;-66
2023/12/04 01:05:34;;;;;;;42.67;15.57;;;-1.20;99.90;;;;;;4933844;29;20211;-67
2023/12/04 01:08:00;;;;;;;33.60;13.37;;;-1.20;99.90;;;;;;4934126;29;20218;-66
2023/12/04 01:10:25;;;;;;;34.13;13.37;;;-1.20;99.90;;;;;;4932878;29;20198;-67
2023/12/04 01:12:51;;;;;;;29.87;13.07;;;-1.20;99.90;;;;;;4934164;29;20211;-67
2023/12/04 01:15:16;;;;;;;31.30;13.60;;;-1.10;99.90;;;;;;4933900;29;20202;-67
2023/12/04 01:17:42;;;;;;;31.17;13.30;;;-1.10;99.90;;;;;;4934319;29;20222;-67
2023/12/04 01:20:08;;;;;;;36.70;14.40;;;-1.10;99.90;;;;;;4933520;29;20206;-67
2023/12/04 01:22:34;;;;;;;31.40;14.07;;;-1.20;99.90;;;;;;4934112;29;20238;-67
2023/12/04 01:25:00;;;;;;;35.27;14.43;;;-1.20;99.90;;;;;;4934975;29;20191;-67
2023/12/04 01:27:25;;;;;;;33.93;14.07;;;-1.20;99.90;;;;;;4934012;29;20237;-66
2023/12/04 01:29:51;;;;;;;28.70;13.27;;;-1.20;99.90;;;;;;4933106;29;20199;-65
2023/12/04 01:32:16;;;;;;;33.40;13.67;;;-1.20;99.90;;;;;;4933025;29;20310;-65
2023/12/04 01:34:42;;;;;;;35.33;13.67;;;-1.30;99.90;;;;;;4933698;29;20190;-67
2023/12/04 01:37:07;;;;;;;33.87;13.77;;;-1.20;99.90;;;;;;4933716;29;20191;-67
2023/12/04 01:39:33;;;;;;;29.47;13.47;;;-1.20;99.90;;;;;;4932789;29;20194;-66
2023/12/04 01:41:58;;;;;;;33.70;14.00;;;-1.30;99.90;;;;;;4933499;29;20286;-67
2023/12/04 01:44:24;;;;;;;30.73;12.60;;;-1.20;99.90;;;;;;4933403;29;20281;-67
2023/12/04 01:46:50;;;;;;;28.97;12.53;;;-1.30;99.90;;;;;;4932113;29;20238;-67
2023/12/04 01:49:16;;;;;;;30.13;12.60;;;-1.30;99.90;;;;;;4933513;29;20187;-67
2023/12/04 01:51:43;;;;;;;33.20;12.83;;;-1.30;99.90;;;;;;4932876;29;20203;-67
2023/12/04 01:54:08;;;;;;;33.43;13.53;;;-1.30;99.90;;;;;;4933291;29;20270;-67
2023/12/04 01:56:37;;;;;;;32.67;12.47;;;-1.30;99.90;;;;;;4933229;29;20542;-67
2023/12/04 01:59:03;;;;;;;30.73;12.30;;;-1.30;99.90;;;;;;4933164;29;20179;-67
2023/12/04 02:01:28;;;;;;;33.87;13.27;;;-1.40;99.90;;;;;;4932340;29;20832;-67
2023/12/04 02:03:56;;;;;;;30.83;13.50;;;-1.40;99.90;;;;;;4933285;29;20250;-67
2023/12/04 02:06:21;;;;;;;32.17;12.77;;;-1.40;99.90;;;;;;4933136;29;20209;-66
2023/12/04 02:08:48;;;;;;;31.33;13.03;;;-1.40;99.90;;;;;;4933023;29;20187;-67
2023/12/04 02:11:13;;;;;;;33.03;13.53;;;-1.40;99.90;;;;;;4932630;29;20549;-66
2023/12/04 02:13:39;;;;;;;27.67;12.23;;;-1.40;99.90;;;;;;4933152;29;20278;-67
2023/12/04 02:16:09;;;;;;;30.77;12.90;;;-1.40;99.90;;;;;;4933169;29;20191;-66
2023/12/04 02:18:35;;;;;;;33.30;13.43;;;-1.40;99.90;;;;;;4932894;29;20207;-65
2023/12/04 02:21:01;;;;;;;36.07;13.83;;;-1.40;99.90;;;;;;4932345;29;20225;-68
2023/12/04 02:23:28;;;;;;;36.63;14.40;;;-1.40;99.90;;;;;;4932748;29;20198;-67
2023/12/04 02:26:08;;;;;;;36.40;13.07;;;-1.50;99.90;;;;;;4933172;29;20773;-67
2023/12/04 02:28:35;;;;;;;33.47;13.30;;;-1.50;99.90;;;;;;4936828;29;20951;-66
2023/12/04 02:31:04;;;;;;;29.93;12.43;;;-1.60;99.90;;;;;;4936157;29;20657;-66
2023/12/04 02:33:32;;;;;;;31.60;13.63;;;-1.50;99.90;;;;;;4951492;29;20431;-66
2023/12/04 02:36:00;;;;;;;31.67;13.43;;;-1.50;99.90;;;;;;4936868;29;20187;-67
2023/12/04 02:38:27;;;;;;;29.97;13.27;;;-1.50;99.90;;;;;;4936636;29;20761;-67
2023/12/04 02:40:52;;;;;;;32.67;13.70;;;-1.50;99.90;;;;;;4936080;29;20179;-67
2023/12/04 02:43:18;;;;;;;34.00;14.67;;;-1.50;99.90;;;;;;4936772;29;20497;-65
2023/12/04 02:45:43;;;;;;;32.57;13.67;;;-1.50;99.90;;;;;;4936665;29;20183;-66
2023/12/04 02:48:10;;;;;;;31.97;13.70;;;-1.40;99.90;;;;;;4936551;29;20229;-67
2023/12/04 02:50:35;;;;;;;32.17;13.53;;;-1.50;99.90;;;;;;4936200;29;20666;-67
2023/12/04 02:53:01;;;;;;;32.30;13.13;;;-1.50;99.90;;;;;;4936440;29;20258;-68
2023/12/04 02:55:27;;;;;;;29.10;13.13;;;-1.50;99.90;;;;;;4936297;29;20242;-67
2023/12/04 02:57:53;;;;;;;29.87;13.03;;;-1.50;99.90;;;;;;4936509;29;20331;-67
2023/12/04 03:00:18;;;;;;;25.37;12.07;;;-1.60;99.90;;;;;;4935622;29;20285;-66
2023/12/04 03:02:44;;;;;;;30.17;12.97;;;-1.50;99.90;;;;;;4936430;29;20282;-67
2023/12/04 03:05:10;;;;;;;32.27;12.83;;;-1.60;99.90;;;;;;4936381;29;20251;-67
2023/12/04 03:07:36;;;;;;;29.90;12.63;;;-1.60;99.90;;;;;;4950825;29;20207;-67
2023/12/04 03:10:01;;;;;;;29.90;12.60;;;-1.60;99.90;;;;;;4935633;29;20558;-66
2023/12/04 03:12:27;;;;;;;31.47;12.13;;;-1.50;99.90;;;;;;4936130;29;20302;-66
2023/12/04 03:14:52;;;;;;;30.60;12.93;;;-1.50;99.90;;;;;;4936338;29;20198;-67
2023/12/04 03:17:18;;;;;;;30.60;13.27;;;-1.50;99.90;;;;;;4935997;29;20249;-67
2023/12/04 03:19:43;;;;;;;35.83;13.93;;;-1.60;99.90;;;;;;4934313;29;20191;-67
2023/12/04 03:22:09;;;;;;;30.03;12.37;;;-1.60;99.90;;;;;;4935914;29;20295;-66
2023/12/04 03:24:34;;;;;;;29.50;12.33;;;-1.50;99.90;;;;;;4935872;29;20202;-66
2023/12/04 03:27:00;;;;;;;27.47;12.70;;;-1.60;99.90;;;;;;4936207;29;20665;-66
2023/12/04 03:29:25;;;;;;;28.57;12.37;;;-1.60;99.90;;;;;;4935713;29;20196;-67
2023/12/04 03:31:51;;;;;;;29.47;13.03;;;-1.60;99.90;;;;;;4935143;29;20270;-66
2023/12/04 03:34:16;;;;;;;30.53;12.80;;;-1.60;99.90;;;;;;4935717;29;20576;-67
2023/12/04 03:36:42;;;;;;;26.87;11.77;;;-1.60;99.90;;;;;;4935894;29;20188;-67
2023/12/04 03:39:07;;;;;;;29.03;12.13;;;-1.60;99.90;;;;;;4948939;28;20246;-66
2023/12/04 03:41:33;;;;;;;27.40;11.43;;;-1.70;99.90;;;;;;4934842;29;20218;-67
2023/12/04 03:43:59;;;;;;;31.40;12.30;;;-1.70;99.90;;;;;;4935630;29;20194;-67
2023/12/04 03:46:25;;;;;;;29.67;12.53;;;-1.70;99.90;;;;;;4950122;29;20213;-67
2023/12/04 03:48:51;;;;;;;31.53;12.60;;;-1.70;99.90;;;;;;4934374;29;20203;-66
2023/12/04 03:51:16;;;;;;;30.20;12.20;;;-1.70;99.90;;;;;;4934760;29;20864;-66
2023/12/04 03:53:42;;;;;;;30.03;12.47;;;-1.70;99.90;;;;;;4935546;29;20191;-66
2023/12/04 03:56:08;;;;;;;29.13;12.93;;;-1.70;99.90;;;;;;4935438;29;20250;-66
2023/12/04 03:58:34;;;;;;;32.40;13.57;;;-1.70;99.90;;;;;;4935510;29;20176;-65
2023/12/04 04:00:59;;;;;;;29.17;11.70;;;-1.80;99.90;;;;;;4934669;29;20362;-66
2023/12/04 04:03:25;;;;;;;29.43;12.87;;;-1.80;99.90;;;;;;4935349;29;20207;-67
2023/12/04 04:05:50;;;;;;;29.67;12.07;;;-1.80;99.90;;;;;;4935350;29;20191;-67
2023/12/04 04:08:16;;;;;;;30.07;12.53;;;-1.80;99.90;;;;;;4949583;29;20211;-66
2023/12/04 04:10:41;;;;;;;34.83;12.83;;;-1.90;99.90;;;;;;4934326;29;20214;-67
2023/12/04 04:13:07;;;;;;;33.87;13.03;;;-1.80;99.90;;;;;;4935140;29;20192;-67
2023/12/04 04:15:32;;;;;;;29.37;11.80;;;-1.90;99.90;;;;;;4935019;29;20191;-67
2023/12/04 04:17:58;;;;;;;30.00;11.87;;;-1.90;99.90;;;;;;4935073;29;20207;-66
2023/12/04 04:20:23;;;;;;;30.93;13.50;;;-1.90;99.90;;;;;;4934346;29;20260;-67
2023/12/04 04:22:49;;;;;;;31.40;13.20;;;-2.00;99.90;;;;;;4935096;29;20211;-67
2023/12/04 04:25:16;;;;;;;30.47;13.30;;;-2.00;99.90;;;;;;4934824;29;20290;-66
2023/12/04 04:27:41;;;;;;;29.23;12.17;;;-2.10;99.90;;;;;;4934932;29;20215;-67
2023/12/04 04:30:08;;;;;;;30.17;12.10;;;-2.10;99.90;;;;;;4934050;29;20720;-67
2023/12/04 04:32:34;;;;;;;32.37;13.07;;;-2.10;99.90;;;;;;4949175;28;20219;-65
2023/12/04 04:34:59;;;;;;;28.27;12.17;;;-2.10;99.90;;;;;;4934884;29;20442;-66
2023/12/04 04:37:25;;;;;;;32.93;13.43;;;-2.00;99.90;;;;;;4934801;29;20225;-66
2023/12/04 04:39:50;;;;;;;30.23;13.30;;;-2.00;99.90;;;;;;4934147;29;20199;-66
2023/12/04 04:42:16;;;;;;;29.20;12.60;;;-2.00;99.90;;;;;;4934565;29;20274;-66
2023/12/04 04:44:41;;;;;;;34.33;13.37;;;-2.00;99.90;;;;;;4934723;29;20198;-67
2023/12/04 04:47:07;;;;;;;33.07;13.00;;;-2.00;99.90;;;;;;4934618;29;20218;-67
2023/12/04 04:49:33;;;;;;;33.47;13.03;;;-2.00;99.90;;;;;;4933599;29;20194;-66
2023/12/04 04:51:58;;;;;;;33.50;13.17;;;-1.90;99.90;;;;;;4934348;29;20590;-66
2023/12/04 04:54:24;;;;;;;34.27;13.80;;;-2.00;99.90;;;;;;4934293;29;20215;-65
2023/12/04 04:56:49;;;;;;;35.97;13.60;;;-2.00;99.90;;;;;;4934520;29;20191;-66
2023/12/04 04:59:15;;;;;;;31.03;12.93;;;-1.90;99.90;;;;;;4934367;29;20210;-66
2023/12/04 05:01:41;;;;;;;34.43;13.43;;;-1.90;99.90;;;;;;4948712;28;20641;-65
2023/12/04 05:04:06;;;;;;;31.57;12.37;;;-1.90;99.90;;;;;;4934317;29;20179;-66
2023/12/04 05:06:32;;;;;;;31.03;12.83;;;-2.00;99.90;;;;;;4933991;29;20273;-65
2023/12/04 05:08:57;;;;;;;32.00;13.33;;;-2.00;99.90;;;;;;4933961;29;20191;-66
2023/12/04 05:11:23;;;;;;;33.50;13.60;;;-1.90;99.90;;;;;;4933437;29;20587;-66
2023/12/04 05:13:49;;;;;;;30.17;13.47;;;-1.90;99.90;;;;;;4934139;29;20645;-66
2023/12/04 05:16:15;;;;;;;31.20;13.13;;;-1.90;99.90;;;;;;4933996;29;20198;-66
2023/12/04 05:18:41;;;;;;;30.40;12.43;;;-2.00;99.90;;;;;;4934069;29;20182;-66
2023/12/04 05:21:10;;;;;;;31.40;12.90;;;-2.00;99.90;;;;;;4933367;29;20207;-66
2023/12/04 05:23:37;;;;;;;29.40;12.57;;;-2.10;99.90;;;;;;4933753;29;20423;-65
2023/12/04 05:26:04;;;;;;;31.90;13.10;;;-2.10;99.90;;;;;;4932639;29;20422;-66
2023/12/04 05:28:29;;;;;;;34.33;14.23;;;-2.00;99.90;;;;;;4932536;29;20427;-67
2023/12/04 05:30:55;;;;;;;34.57;12.90;;;-2.00;99.90;;;;;;4932965;29;20458;-66
2023/12/04 05:33:20;;;;;;;30.70;12.73;;;-2.00;99.90;;;;;;4933596;29;20202;-65
2023/12/04 05:35:51;;;;;;;41.23;15.03;;;-2.00;99.90;;;;;;4933752;29;20198;-66
2023/12/04 05:38:17;;;;;;;30.07;12.03;;;-2.10;99.90;;;;;;4933395;29;20187;-66
2023/12/04 05:40:43;;;;;;;33.47;14.03;;;-2.10;99.90;;;;;;4932901;29;20437;-66
2023/12/04 05:43:08;;;;;;;34.13;13.37;;;-2.10;99.90;;;;;;4933486;29;20230;-66
2023/12/04 05:45:34;;;;;;;32.67;14.93;;;-2.20;99.90;;;;;;4933570;29;20191;-66
2023/12/04 05:48:00;;;;;;;49.87;18.63;;;-2.20;99.90;;;;;;4933548;29;20238;-65
2023/12/04 05:50:25;;;;;;;34.60;13.67;;;-2.20;99.90;;;;;;4932856;29;20187;-65
2023/12/04 05:52:51;;;;;;;34.87;14.00;;;-2.20;99.90;;;;;;4933232;29;20278;-65
2023/12/04 05:55:16;;;;;;;29.13;12.50;;;-2.20;99.90;;;;;;4933499;29;20191;-65
2023/12/04 05:57:43;;;;;;;30.13;12.33;;;-2.20;99.90;;;;;;4933400;29;21166;-66
2023/12/04 06:00:12;;;;;;;32.50;12.90;;;-2.20;99.90;;;;;;4936543;29;20216;-65
2023/12/04 06:02:38;;;;;;;31.90;12.83;;;-2.20;99.90;;;;;;4939077;28;20505;-65
2023/12/04 06:05:05;;;;;;;32.00;13.00;;;-2.20;99.90;;;;;;4944157;28;20505;-66
2023/12/04 06:07:30;;;;;;;36.97;14.37;;;-2.20;99.90;;;;;;4934050;28;20538;-66
2023/12/04 06:09:56;;;;;;;39.17;15.50;;;-2.20;99.90;;;;;;4932618;29;21059;-66
2023/12/04 06:12:21;;;;;;;34.80;13.83;;;-2.20;99.90;;;;;;4933076;29;20624;-65
2023/12/04 06:14:47;;;;;;;38.23;14.53;;;-2.20;99.90;;;;;;4933202;29;20183;-66
2023/12/04 06:17:13;;;;;;;36.90;16.80;;;-2.20;99.90;;;;;;4933246;29;20191;-67
2023/12/04 06:19:38;;;;;;;32.77;13.40;;;-2.20;99.90;;;;;;4932988;29;20650;-65
2023/12/04 06:22:04;;;;;;;37.80;14.83;;;-2.20;99.90;;;;;;4932926;29;20242;-65
2023/12/04 06:24:30;;;;;;;34.63;13.63;;;-2.30;99.90;;;;;;4932945;29;20191;-66
2023/12/04 06:26:57;;;;;;;30.03;12.77;;;-2.20;99.90;;;;;;4932916;29;20215;-66
2023/12/04 06:29:24;;;;;;;33.97;14.53;;;-2.30;99.90;;;;;;4932605;29;20430;-66
2023/12/04 06:31:50;;;;;;;33.77;15.53;;;-2.30;99.90;;;;;;4932332;29;20470;-65
2023/12/04 06:34:15;;;;;;;38.10;18.23;;;-2.40;99.90;;;;;;4932757;29;20445;-67
2023/12/04 06:36:41;;;;;;;37.27;15.20;;;-2.30;99.90;;;;;;4933038;29;20190;-66
2023/12/04 06:39:10;;;;;;;38.47;16.33;;;-2.30;99.90;;;;;;4932844;29;20178;-66
2023/12/04 06:41:36;;;;;;;31.70;14.03;;;-2.30;99.90;;;;;;4932313;29;20199;-65
2023/12/04 06:44:02;;;;;;;31.57;13.23;;;-2.30;99.90;;;;;;4933035;29;20431;-66
2023/12/04 06:46:30;;;;;;;37.40;14.97;;;-2.30;99.90;;;;;;4932848;29;20921;-65
2023/12/04 06:48:59;;;;;;;32.23;14.00;;;-2.30;99.90;;;;;;4932765;29;20439;-66
2023/12/04 06:51:25;;;;;;;35.80;14.73;;;-2.20;99.90;;;;;;4946908;28;20455;-65
2023/12/04 06:53:51;;;;;;;33.40;12.93;;;-2.20;99.90;;;;;;4932898;29;20435;-66
2023/12/04 06:56:16;;;;;;;33.90;13.90;;;-2.20;99.90;;;;;;4932653;29;20195;-66
2023/12/04 06:58:42;;;;;;;33.80;14.17;;;-2.20;99.90;;;;;;4932851;29;20187;-67
2023/12/04 07:01:07;;;;;;;37.50;13.87;;;-2.30;99.90;;;;;;4936504;28;20229;-66
2023/12/04 07:03:33;;;;;;;34.27;14.20;;;-2.30;99.90;;;;;;4937822;29;20198;-66
2023/12/04 07:05:58;;;;;;;34.77;13.30;;;-2.30;99.90;;;;;;4937056;29;20214;-66
2023/12/04 07:08:24;;;;;;;30.53;12.77;;;-2.30;99.90;;;;;;4932565;29;20298;-67
2023/12/04 07:10:50;;;;;;;36.40;13.93;;;-2.30;99.90;;;;;;4946928;29;20199;-66
2023/12/04 07:13:16;;;;;;;37.37;14.60;;;-2.30;99.90;;;;;;4934651;29;20530;-66
2023/12/04 07:15:41;;;;;;;35.77;13.47;;;-2.30;99.90;;;;;;4950929;29;20234;-66
2023/12/04 07:18:07;;;;;;;37.37;15.37;;;-2.30;99.90;;;;;;4950986;29;20199;-66
2023/12/04 07:20:32;;;;;;;35.93;15.63;;;-2.40;99.90;;;;;;4935691;29;20202;-66
2023/12/04 07:22:58;;;;;;;37.40;14.20;;;-2.40;99.90;;;;;;4935950;29;20634;-67
2023/12/04 07:25:24;;;;;;;37.13;14.70;;;-2.40;99.90;;;;;;4950631;29;20199;-66
2023/12/04 07:27:50;;;;;;;35.40;15.30;;;-2.40;99.90;;;;;;4935982;29;20222;-66
2023/12/04 07:30:15;;;;;;;37.93;14.67;;;-2.40;99.90;;;;;;4935369;29;20198;-67
2023/12/04 07:32:41;;;;;;;34.00;14.57;;;-2.40;99.90;;;;;;4935881;29;20207;-67
2023/12/04 07:35:07;;;;;;;37.67;15.23;;;-2.40;99.90;;;;;;4935883;29;20191;-67
2023/12/04 07:37:33;;;;;;;35.53;13.77;;;-2.30;99.90;;;;;;4950515;29;20257;-66
2023/12/04 07:39:59;;;;;;;34.77;14.33;;;-2.40;99.90;;;;;;4935188;29;20283;-66
2023/12/04 07:42:24;;;;;;;34.00;14.47;;;-2.40;99.90;;;;;;4935609;29;20235;-65
2023/12/04 07:44:50;;;;;;;35.80;14.47;;;-2.30;99.90;;;;;;4935803;29;20715;-65
2023/12/04 07:47:15;;;;;;;32.30;14.33;;;-2.40;99.90;;;;;;4935411;29;20215;-66
2023/12/04 07:49:42;;;;;;;46.70;19.93;;;-2.40;99.90;;;;;;4935421;29;20187;-66
2023/12/04 07:52:08;;;;;;;39.20;15.47;;;-2.40;99.90;;;;;;4935389;29;20232;-66
2023/12/04 07:54:34;;;;;;;44.03;18.60;;;-2.40;99.90;;;;;;4935390;29;20485;-65
2023/12/04 07:56:59;;;;;;;37.77;16.07;;;-2.40;99.90;;;;;;4935500;29;20427;-66
2023/12/04 07:59:25;;;;;;;33.97;14.90;;;-2.40;99.90;;;;;;4935293;29;20471;-66
2023/12/04 08:01:51;;;;;;;34.27;15.07;;;-2.30;99.90;;;;;;4935108;29;20214;-66
2023/12/04 08:04:17;;;;;;;39.90;14.83;;;-2.30;99.90;;;;;;4935161;29;20246;-67
2023/12/04 08:06:42;;;;;;;45.27;18.17;;;-2.30;99.90;;;;;;4935287;29;20478;-66
2023/12/04 08:09:09;;;;;;;35.57;14.60;;;-2.20;99.90;;;;;;4935024;29;20202;-67
2023/12/04 08:11:36;;;;;;;36.63;14.77;;;-2.20;99.90;;;;;;4934557;29;20625;-66
2023/12/04 08:14:02;;;;;;;33.00;13.50;;;-2.20;99.90;;;;;;4935304;29;20427;-66
2023/12/04 08:16:29;;;;;;;34.90;15.60;;;-2.20;99.90;;;;;;4935026;29;20427;-66
2023/12/04 08:18:55;;;;;;;35.30;14.53;;;-2.10;99.90;;;;;;4935162;29;20427;-64
2023/12/04 08:21:20;;;;;;;33.07;14.77;;;-2.10;99.90;;;;;;4934445;29;20447;-65
2023/12/04 08:23:46;;;;;;;33.50;13.63;;;-2.10;99.90;;;;;;4934439;29;20192;-66
2023/12/04 08:26:12;;;;;;;31.57;12.77;;;-2.00;99.90;;;;;;4934924;29;20337;-65
2023/12/04 08:28:41;;;;;;;32.87;12.83;;;-2.00;99.90;;;;;;4934782;29;20601;-64
2023/12/04 08:31:08;;;;;;;31.10;13.60;;;-2.00;99.90;;;;;;4934099;29;20227;-65
2023/12/04 08:33:34;;;;;;;34.13;13.57;;;-2.00;99.90;;;;;;4949526;29;20435;-64
2023/12/04 08:36:00;;;;;;;31.50;13.03;;;-2.00;99.90;;;;;;4934808;29;20773;-66
2023/12/04 08:38:26;;;;;;;32.80;13.83;;;-2.00;99.90;;;;;;4934550;29;20202;-67
2023/12/04 08:40:52;;;;;;;28.87;13.20;;;-2.00;99.90;;;;;;4949125;29;20188;-65
2023/12/04 08:43:18;;;;;;;29.47;12.83;;;-2.00;99.90;;;;;;4949263;29;20195;-66
2023/12/04 08:45:45;;;;;;;34.00;14.37;;;-1.90;99.90;;;;;;4934523;29;20485;-66
2023/12/04 08:48:10;;;;;;;23.77;11.13;;;-1.90;99.90;;;;;;4934472;29;20203;-67
2023/12/04 08:50:37;;;;;;;35.47;14.63;;;-1.90;99.90;;;;;;4934026;29;20438;-66
2023/12/04 08:53:03;;;;;;;28.13;12.00;;;-1.80;99.90;;;;;;4934356;29;20675;-65
2023/12/04 08:55:29;;;;;;;33.17;13.67;;;-1.80;99.90;;;;;;4934334;29;20522;-66
2023/12/04 08:57:55;;;;;;;34.87;13.63;;;-1.80;99.90;;;;;;4934434;29;20322;-66
2023/12/04 09:00:20;;;;;;;36.10;14.77;;;-1.80;99.90;;;;;;4933723;29;20202;-67
2023/12/04 09:02:47;;;;;;;33.57;13.13;;;-1.70;99.90;;;;;;4934248;29;20207;-66
2023/12/04 09:05:13;;;;;;;31.57;13.80;;;-1.70;99.90;;;;;;4934249;29;20195;-66
2023/12/04 09:07:38;;;;;;;35.10;14.67;;;-1.70;99.90;;;;;;4933957;29;20475;-66
2023/12/04 09:10:04;;;;;;;31.13;13.10;;;-1.70;99.90;;;;;;4933626;29;20687;-66
2023/12/04 09:12:30;;;;;;;32.23;14.07;;;-1.60;99.90;;;;;;4933855;29;20207;-66
2023/12/04 09:14:55;;;;;;;30.30;13.37;;;-1.60;99.90;;;;;;4933988;29;20971;-66
2023/12/04 09:17:21;;;;;;;30.60;12.97;;;-1.60;99.90;;;;;;4933919;29;20195;-66
2023/12/04 09:19:46;;;;;;;30.07;11.83;;;-1.60;99.90;;;;;;4933657;29;20179;-67
2023/12/04 09:22:12;;;;;;;31.90;12.53;;;-1.60;99.90;;;;;;4934272;29;20720;-66
2023/12/04 09:24:37;;;;;;;29.77;12.87;;;-1.60;99.90;;;;;;4933766;29;20634;-66
2023/12/04 09:27:03;;;;;;;29.80;12.03;;;-1.60;99.90;;;;;;4933757;29;20270;-67
2023/12/04 09:29:29;;;;;;;25.73;11.87;;;-1.60;99.90;;;;;;4933162;29;20196;-65
2023/12/04 09:31:54;;;;;;;32.80;13.63;;;-1.50;99.90;;;;;;4933750;29;20230;-67
2023/12/04 09:34:20;;;;;;;29.27;12.00;;;-1.50;99.90;;;;;;4933584;29;20195;-68
2023/12/04 09:36:48;;;;;;;33.97;13.03;;;-1.40;99.90;;;;;;4933645;29;20187;-67
2023/12/04 09:39:14;;;;;;;23.50;10.67;;;-1.50;99.90;;;;;;4933529;29;20554;-67
2023/12/04 09:41:41;;;;;;;34.80;14.00;;;-1.40;99.90;;;;;;4932774;29;20195;-67
2023/12/04 09:44:08;;;;;;;28.70;11.53;;;-1.40;99.90;;;;;;4933580;29;20179;-67
2023/12/04 09:46:34;;;;;;;27.63;11.17;;;-1.40;99.90;;;;;;4933388;29;20490;-67
2023/12/04 09:49:00;;;;;;;27.43;11.77;;;-1.30;99.90;;;;;;4933636;29;20975;-68
2023/12/04 09:51:27;;;;;;;26.90;11.57;;;-1.30;99.90;;;;;;4932601;29;20517;-66
2023/12/04 09:53:55;;;;;;;28.07;11.53;;;-1.40;99.90;;;;;;4933365;29;20419;-67
2023/12/04 09:56:22;;;;;;;24.73;11.60;;;-1.40;99.90;;;;;;4933200;29;20558;-67
2023/12/04 09:58:52;;;;;;;28.03;11.40;;;-1.40;99.90;;;;;;4932796;29;20191;-67
2023/12/04 10:01:18;;;;;;;25.57;11.30;;;-1.40;99.90;;;;;;4931721;29;20455;-66
2023/12/04 10:03:44;;;;;;;25.07;11.00;;;-1.40;99.90;;;;;;4932901;29;20426;-67
2023/12/04 10:06:16;;;;;;;24.10;10.80;;;-1.40;99.90;;;;;;4932262;29;20183;-68
2023/12/04 10:08:44;;;;;;;28.83;10.93;;;-1.30;99.90;;;;;;4930633;29;20193;-67
2023/12/04 10:11:10;;;;;;;26.63;11.70;;;-1.30;99.90;;;;;;4931966;29;20198;-67
2023/12/04 10:13:36;;;;;;;25.57;10.70;;;-1.30;99.90;;;;;;4933284;29;20415;-67
2023/12/04 10:16:02;;;;;;;25.53;10.87;;;-1.30;99.90;;;;;;4933326;29;20183;-67
2023/12/04 10:18:32;;;;;;;33.57;11.40;;;-1.30;99.90;;;;;;4933443;29;20195;-66
2023/12/04 10:21:00;;;;;;;23.60;10.90;;;-1.30;99.90;;;;;;4947239;29;21003;-66
2023/12/04 10:23:39;;;;;;;23.63;10.67;;;-1.40;99.90;;;;;;4932993;29;20415;-67
2023/12/04 10:26:07;;;;;;;32.20;11.53;;;-1.30;99.90;;;;;;4932359;29;20426;-68
2023/12/04 10:28:33;;;;;;;25.33;10.77;;;-1.30;99.90;;;;;;4932425;29;20498;-66
2023/12/04 10:30:58;;;;;;;24.23;10.37;;;-1.30;99.90;;;;;;4931689;29;20238;-66
2023/12/04 10:33:30;;;;;;;26.83;10.70;;;-1.30;99.90;;;;;;4931505;29;20802;-66
2023/12/04 10:35:56;;;;;;;29.60;11.47;;;-1.20;99.90;;;;;;4932868;29;20189;-67
2023/12/04 10:38:21;;;;;;;23.97;10.63;;;-1.30;99.90;;;;;;4932526;29;20282;-67
2023/12/04 10:40:47;;;;;;;27.60;10.43;;;-1.20;99.90;;;;;;4932134;29;20242;-67
2023/12/04 10:43:21;;;;;;;22.77;10.07;;;-1.20;99.90;;;;;;4932230;29;20190;-67
2023/12/04 10:45:48;;;;;;;24.43;10.17;;;-1.20;99.90;;;;;;4932518;29;20186;-67
2023/12/04 10:48:16;;;;;;;33.17;11.20;;;-1.10;99.90;;;;;;4934325;29;20494;-67
2023/12/04 10:50:43;;;;;;;28.97;11.27;;;-1.10;99.90;;;;;;4934965;29;20466;-66
2023/12/04 10:53:10;;;;;;;24.77;11.13;;;-1.00;99.90;;;;;;4935734;29;20280;-67
2023/12/04 10:55:37;;;;;;;29.30;11.50;;;-1.10;99.90;;;;;;4935482;29;20932;-68
2023/12/04 10:58:06;;;;;;;27.07;11.37;;;-1.00;99.90;;;;;;4936243;29;20183;-66
2023/12/04 11:00:33;;;;;;;27.70;11.80;;;-0.90;99.90;;;;;;4935710;29;20262;-68
2023/12/04 11:03:08;;;;;;;27.23;11.30;;;-1.00;99.90;;;;;;4936003;29;20203;-68
2023/12/04 11:05:37;;;;;;;29.30;11.73;;;-1.00;99.90;;;;;;4935590;29;20182;-67
2023/12/04 11:08:06;;;;;;;26.47;10.53;;;-1.00;99.90;;;;;;4935515;29;20207;-66
2023/12/04 11:10:32;;;;;;;27.77;10.93;;;-1.00;99.90;;;;;;4934832;29;20427;-68
2023/12/04 11:13:12;;;;;;;30.07;12.30;;;-1.10;99.90;;;;;;4934597;29;20450;-67
2023/12/04 11:15:41;;;;;;;25.07;11.47;;;-1.00;99.90;;;;;;4935207;29;20230;-66
2023/12/04 11:18:09;;;;;;;30.53;11.50;;;-1.00;99.90;;;;;;4935618;29;20450;-67
2023/12/04 11:20:40;;;;;;;25.00;10.30;;;-1.00;99.90;;;;;;4934905;29;20183;-68
2023/12/04 11:23:07;;;;;;;26.83;10.47;;;-1.00;99.90;;;;;;4935794;29;20262;-67
2023/12/04 11:25:37;;;;;;;26.67;12.17;;;-1.00;99.90;;;;;;4935398;29;20202;-66
2023/12/04 11:28:04;;;;;;;29.40;12.37;;;-1.00;99.90;;;;;;4935166;29;20687;-67
2023/12/04 11:30:30;;;;;;;32.13;13.37;;;-1.00;99.90;;;;;;4934625;29;20418;-66
2023/12/04 11:32:56;;;;;;;34.57;13.57;;;-1.00;99.90;;;;;;4935358;29;20493;-66
2023/12/04 11:35:25;;;;;;;34.63;13.93;;;-1.00;99.90;;;;;;4938130;28;20419;-71
2023/12/04 11:37:52;;;;;;;30.33;12.87;;;-1.00;99.90;;;;;;4935126;29;20435;-67
2023/12/04 11:40:18;;;;;;;31.70;12.97;;;-0.90;99.90;;;;;;4935659;29;20445;-66
2023/12/04 11:42:43;;;;;;;29.53;11.93;;;-0.90;99.90;;;;;;4927297;29;20215;-68
2023/12/04 11:45:10;;;;;;;26.37;11.70;;;-0.90;99.90;;;;;;4935357;29;20197;-67
2023/12/04 11:47:55;;;;;;;32.73;12.83;;;-0.80;99.90;;;;;;4934910;29;20225;-66
2023/12/04 11:50:22;;;;;;;25.93;11.87;;;-0.80;99.90;;;;;;4938046;29;20213;-68
2023/12/04 11:52:47;;;;;;;25.30;10.67;;;-0.80;99.90;;;;;;4934906;29;20438;-68
2023/12/04 11:55:25;;;;;;;28.43;12.47;;;-0.80;99.90;;;;;;4940900;29;20760;-67
2023/12/04 11:57:53;;;;;;;28.20;12.13;;;-0.70;99.90;;;;;;4942431;29;20281;-67
2023/12/04 12:00:22;;;;;;;32.93;13.00;;;-0.70;99.90;;;;;;4944025;28;20458;-65
2023/12/04 12:02:53;;;;;;;30.20;12.07;;;-0.70;99.90;;;;;;4927329;29;20501;-65
2023/12/04 12:05:23;;;;;;;27.87;11.53;;;-0.70;99.90;;;;;;4934607;29;20210;-65
2023/12/04 12:07:49;;;;;;;26.53;10.33;;;-0.80;99.90;;;;;;4938164;29;20921;-65
2023/12/04 12:10:16;;;;;;;31.03;11.67;;;-0.70;99.90;;;;;;4935864;29;20282;-66
2023/12/04 12:12:43;;;;;;;25.73;11.13;;;-0.70;99.90;;;;;;4934287;29;20230;-66
2023/12/04 12:15:09;;;;;;;31.90;12.93;;;-0.70;99.90;;;;;;4934579;29;20176;-65
2023/12/04 12:17:37;;;;;;;31.73;13.80;;;-0.70;99.90;;;;;;4934172;29;20999;-66
2023/12/04 12:20:06;;;;;;;34.83;12.47;;;-0.80;99.90;;;;;;4933810;29;20194;-65
2023/12/04 12:22:33;;;;;;;25.63;11.33;;;-0.80;99.90;;;;;;4935148;29;20199;-65